createdAt,value
2022-11-18T00:01:55.927Z,101085.84
2022-11-18T00:04:26.143Z,101093.81
2022-11-18T00:06:56.363Z,101089.72
2022-11-18T00:09:26.495Z,101086.16
2022-11-18T00:12:14.770Z,101093.31
2022-11-18T00:14:44.877Z,101080.31
2022-11-18T00:17:14.875Z,101079.19
2022-11-18T00:19:45.087Z,101083.91
2022-11-18T00:22:16.846Z,101084.72
2022-11-18T00:24:47.000Z,101087.47
2022-11-18T00:27:17.004Z,101083.91
2022-11-18T00:29:46.948Z,101090.53
2022-11-18T00:32:16.861Z,101083.91
2022-11-18T00:34:46.897Z,101097.69
2022-11-18T00:37:18.641Z,101095.75
2022-11-18T00:39:48.779Z,101102.09
2022-11-18T00:42:37.250Z,101111.16
2022-11-18T00:45:07.722Z,101113.59
2022-11-18T00:47:37.841Z,101116.38
2022-11-18T00:50:08.309Z,101114.44
2022-11-18T00:52:38.893Z,101121.88
2022-11-18T00:55:09.591Z,101122.41
2022-11-18T00:57:39.775Z,101126.00
2022-11-18T01:00:10.560Z,101127.13
2022-11-18T01:02:40.792Z,101134.25
2022-11-18T01:05:11.058Z,101139.47
2022-11-18T01:07:41.389Z,101141.41
2022-11-18T01:10:12.095Z,101143.06
2022-11-18T01:13:00.650Z,101148.88
2022-11-18T01:15:30.942Z,101150.50
2022-11-18T01:18:01.209Z,101149.69
2022-11-18T01:20:31.495Z,101154.38
2022-11-18T01:23:01.503Z,101160.72
2022-11-18T01:25:32.612Z,101154.09
2022-11-18T01:28:02.964Z,101155.72
2022-11-18T01:30:36.281Z,101156.03
2022-11-18T01:33:07.635Z,101159.59
2022-11-18T01:35:39.885Z,101159.91
2022-11-18T01:38:11.251Z,101174.22
2022-11-18T01:40:41.191Z,101175.84
2022-11-18T01:43:20.422Z,101178.59
2022-11-18T01:45:53.572Z,101184.63
2022-11-18T01:48:29.112Z,101195.66
2022-11-18T01:51:05.698Z,101201.19
2022-11-18T01:53:40.990Z,101202.81
2022-11-18T01:56:17.005Z,101202.00
2022-11-18T01:58:59.750Z,101202.00
2022-11-18T02:01:30.065Z,101205.88
2022-11-18T02:04:00.838Z,101209.97
2022-11-18T02:06:31.148Z,101209.16
2022-11-18T02:09:01.721Z,101212.41
2022-11-18T02:11:51.722Z,101211.09
2022-11-18T02:14:25.291Z,101215.50
2022-11-18T02:17:07.756Z,101212.75
2022-11-18T02:19:49.827Z,101209.97
2022-11-18T02:22:26.506Z,101204.47
2022-11-18T02:25:08.886Z,101215.50
2022-11-18T02:27:47.461Z,101219.91
2022-11-18T02:30:21.040Z,101216.31
2022-11-18T02:33:00.206Z,101221.22
2022-11-18T02:35:38.362Z,101214.06
2022-11-18T02:38:25.979Z,101215.69
2022-11-18T02:41:01.986Z,101218.78
2022-11-18T02:43:38.327Z,101210.50
2022-11-18T02:46:14.211Z,101214.91
2022-11-18T02:48:49.539Z,101223.97
2022-11-18T02:51:25.970Z,101217.66
2022-11-18T02:53:59.678Z,101209.38
2022-11-18T02:56:30.758Z,101212.63
2022-11-18T02:59:00.996Z,101208.22
2022-11-18T03:01:37.170Z,101214.56
2022-11-18T03:04:28.160Z,101214.25
2022-11-18T03:07:25.464Z,101213.44
2022-11-18T03:09:57.065Z,101213.44
2022-11-18T03:12:40.598Z,101205.16
2022-11-18T03:15:41.168Z,101207.09
2022-11-18T03:18:57.769Z,101219.78
2022-11-18T03:21:48.060Z,101202.09
2022-11-18T03:24:28.947Z,101198.53
2022-11-18T03:27:08.140Z,101203.72
2022-11-18T03:29:45.542Z,101196.28
2022-11-18T03:32:25.837Z,101198.19
2022-11-18T03:35:02.960Z,101188.00
2022-11-18T03:37:37.354Z,101188.50
2022-11-18T03:40:15.007Z,101185.75
2022-11-18T03:42:51.861Z,101184.91
2022-11-18T03:45:33.743Z,101189.31
2022-11-18T03:48:17.760Z,101186.56
2022-11-18T03:50:56.434Z,101184.59
2022-11-18T03:53:30.533Z,101174.38
2022-11-18T03:56:10.492Z,101178.28
2022-11-18T03:59:00.328Z,101171.63
2022-11-18T04:02:09.129Z,101167.22
2022-11-18T04:04:40.532Z,101164.47
2022-11-18T04:07:28.834Z,101156.19
2022-11-18T04:10:22.589Z,101153.13
2022-11-18T04:13:06.472Z,101146.97
2022-11-18T04:15:40.858Z,101137.56
2022-11-18T04:18:12.088Z,101135.66
2022-11-18T04:20:42.600Z,101133.34
2022-11-18T04:23:12.872Z,101125.06
2022-11-18T04:25:42.985Z,101130.31
2022-11-18T04:28:13.688Z,101116.50
2022-11-18T04:30:43.996Z,101099.63
2022-11-18T04:33:14.329Z,101099.63
2022-11-18T04:35:44.541Z,101099.31
2022-11-18T04:38:19.109Z,101088.56
2022-11-18T04:40:51.960Z,101079.16
2022-11-18T04:43:22.223Z,101080.81
2022-11-18T04:45:52.510Z,101078.03
2022-11-18T04:48:22.766Z,101067.84
2022-11-18T04:50:53.106Z,101061.47
2022-11-18T04:53:23.347Z,101056.78
2022-11-18T04:55:53.588Z,101044.91
2022-11-18T04:58:23.865Z,101043.78
2022-11-18T05:00:54.192Z,101034.38
2022-11-18T05:03:25.453Z,101024.13
2022-11-18T05:05:55.968Z,101019.44
2022-11-18T05:08:27.288Z,101023.00
2022-11-18T05:11:17.332Z,101012.81
2022-11-18T05:13:47.513Z,100997.91
2022-11-18T05:16:17.552Z,101007.81
2022-11-18T05:18:47.748Z,100997.91
2022-11-18T05:21:18.008Z,100991.25
2022-11-18T05:23:48.211Z,100982.66
2022-11-18T05:26:18.800Z,100969.97
2022-11-18T05:28:49.079Z,100956.16
2022-11-18T05:31:19.920Z,100950.63
2022-11-18T05:33:50.491Z,100946.75
2022-11-18T05:36:22.356Z,100932.16
2022-11-18T05:38:53.161Z,100931.03
2022-11-18T05:41:41.429Z,100927.13
2022-11-18T05:44:11.782Z,100919.66
2022-11-18T05:46:42.036Z,100918.53
2022-11-18T05:49:12.254Z,100915.44
2022-11-18T05:51:42.492Z,100923.41
2022-11-18T05:54:14.270Z,100912.38
2022-11-18T05:56:47.353Z,100911.25
2022-11-18T05:59:18.238Z,100906.00
2022-11-18T06:02:26.632Z,100904.59
2022-11-18T06:05:02.252Z,100899.06
2022-11-18T06:07:45.902Z,100894.97
2022-11-18T06:10:23.494Z,100895.47
2022-11-18T06:12:58.425Z,100887.19
2022-11-18T06:15:37.071Z,100884.44
2022-11-18T06:18:21.349Z,100884.44
2022-11-18T06:20:53.599Z,100871.44
2022-11-18T06:23:24.275Z,100872.25
2022-11-18T06:25:55.631Z,100863.63
2022-11-18T06:28:26.358Z,100857.31
2022-11-18T06:30:56.824Z,100845.13
2022-11-18T06:33:27.261Z,100831.84
2022-11-18T06:35:57.608Z,100824.34
2022-11-18T06:38:28.061Z,100816.69
2022-11-18T06:41:07.239Z,100819.97
2022-11-18T06:43:46.357Z,100818.03
2022-11-18T06:46:37.564Z,100820.78
2022-11-18T06:49:08.054Z,100821.91
2022-11-18T06:51:38.390Z,100815.56
2022-11-18T06:54:10.888Z,100816.91
2022-11-18T06:56:41.968Z,100821.91
2022-11-18T06:59:12.404Z,100828.25
2022-11-18T07:01:44.184Z,100827.75
2022-11-18T07:04:14.434Z,100824.19
2022-11-18T07:06:44.971Z,100820.28
2022-11-18T07:09:15.542Z,100824.69
2022-11-18T07:11:46.130Z,100818.34
2022-11-18T07:14:16.362Z,100814.44
2022-11-18T07:16:46.618Z,100815.25
2022-11-18T07:19:17.221Z,100814.13
2022-11-18T07:21:47.611Z,100809.41
2022-11-18T07:24:18.904Z,100799.19
2022-11-18T07:26:49.446Z,100798.38
2022-11-18T07:29:19.762Z,100783.44
2022-11-18T07:31:49.975Z,100774.34
2022-11-18T07:34:21.494Z,100772.38
2022-11-18T07:36:51.778Z,100769.97
2022-11-18T07:39:21.827Z,100772.72
2022-11-18T07:41:52.039Z,100769.13
2022-11-18T07:44:22.592Z,100775.47
2022-11-18T07:46:52.837Z,100775.47
2022-11-18T07:49:23.092Z,100772.22
2022-11-18T07:51:53.286Z,100781.31
2022-11-18T07:54:23.294Z,100790.91
2022-11-18T07:56:53.333Z,100778.25
2022-11-18T07:59:23.407Z,100782.63
2022-11-18T08:01:53.508Z,100779.53
2022-11-18T08:04:23.541Z,100786.69
2022-11-18T08:06:53.721Z,100778.41
2022-11-18T08:09:24.012Z,100772.88
2022-11-18T08:11:54.243Z,100776.44
2022-11-18T08:14:26.330Z,100777.59
2022-11-18T08:16:57.003Z,100768.16
2022-11-18T08:19:27.216Z,100763.47
2022-11-18T08:21:59.089Z,100762.63
2022-11-18T08:24:29.294Z,100765.88
2022-11-18T08:26:59.796Z,100759.06
2022-11-18T08:29:30.756Z,100748.03
2022-11-18T08:32:01.430Z,100748.03
2022-11-18T08:34:31.892Z,100754.34
2022-11-18T08:37:02.407Z,100763.13
2022-11-18T08:39:32.667Z,100770.28
2022-11-18T08:42:02.927Z,100768.66
2022-11-18T08:44:35.550Z,100767.50
2022-11-18T08:47:05.834Z,100771.41
2022-11-18T08:49:35.865Z,100778.06
2022-11-18T08:52:06.006Z,100777.44
2022-11-18T08:54:36.235Z,100781.31
2022-11-18T08:57:06.781Z,100784.91
2022-11-18T08:59:37.243Z,100776.63
2022-11-18T09:02:07.572Z,100772.53
2022-11-18T09:04:37.808Z,100766.88
2022-11-18T09:07:08.043Z,100762.63
2022-11-18T09:09:39.031Z,100759.41
2022-11-18T09:12:09.556Z,100769.97
2022-11-18T09:17:30.119Z,100820.47
2022-11-18T09:20:00.348Z,100856.69
2022-11-18T09:22:30.772Z,100927.34
2022-11-18T09:25:00.952Z,100941.16
2022-11-18T09:27:31.234Z,100919.34
2022-11-18T09:30:01.465Z,100920.31
2022-11-18T09:32:31.751Z,100890.28
2022-11-18T09:35:02.036Z,100882.28
2022-11-18T09:37:32.537Z,100883.75
2022-11-18T09:40:02.732Z,100860.88
2022-11-18T09:42:48.894Z,100844.41
2022-11-18T09:45:37.066Z,100859.69
2022-11-18T09:48:45.578Z,100876.66
2022-11-18T09:51:16.475Z,100890.78
2022-11-18T09:53:48.335Z,100901.34
2022-11-18T09:56:19.454Z,100906.34
2022-11-18T09:58:50.373Z,100888.16
2022-11-18T10:01:23.583Z,100888.81
2022-11-18T10:03:54.709Z,100899.03
2022-11-18T10:06:31.604Z,100899.03
2022-11-18T10:09:10.893Z,100895.75
2022-11-18T10:11:53.423Z,100888.31
2022-11-18T10:15:00.110Z,100905.16
2022-11-18T10:17:48.262Z,100900.16
2022-11-18T10:20:53.462Z,100898.03
2022-11-18T10:23:37.779Z,100894.78
2022-11-18T10:26:08.036Z,100896.22
2022-11-18T10:28:38.259Z,100902.88
2022-11-18T10:31:14.467Z,100914.09
2022-11-18T10:33:45.928Z,100908.09
2022-11-18T10:36:30.229Z,100917.00
2022-11-18T10:39:19.523Z,100934.03
2022-11-18T10:41:54.952Z,100933.66
2022-11-18T10:44:44.936Z,100939.19
2022-11-18T10:47:35.342Z,100939.19
2022-11-18T10:50:26.357Z,100935.28
2022-11-18T10:52:56.784Z,100939.88
2022-11-18T10:55:31.343Z,100941.00
2022-11-18T10:58:10.389Z,100949.59
2022-11-18T11:00:49.564Z,100944.69
2022-11-18T11:03:29.825Z,100941.94
2022-11-18T11:06:21.503Z,100956.25
2022-11-18T11:08:54.069Z,100949.91
2022-11-18T11:11:30.937Z,100954.59
2022-11-18T11:14:16.826Z,100967.59
2022-11-18T11:17:15.087Z,100960.13
2022-11-18T11:20:22.730Z,100969.84
2022-11-18T11:22:53.442Z,100976.16
2022-11-18T11:29:00.423Z,100972.91
2022-11-18T11:31:42.840Z,100990.09
2022-11-18T11:34:13.831Z,100988.66
2022-11-18T11:36:53.594Z,100994.19
2022-11-18T11:39:26.768Z,100996.94
2022-11-18T11:42:35.569Z,100997.25
2022-11-18T11:45:21.101Z,100999.88
2022-11-18T11:48:06.195Z,101001.63
2022-11-18T11:51:05.963Z,101006.84
2022-11-18T11:53:53.786Z,101008.28
2022-11-18T11:56:32.981Z,101001.84
2022-11-18T11:59:28.561Z,101004.88
2022-11-18T12:02:02.495Z,101000.50
2022-11-18T12:04:41.556Z,101004.59
2022-11-18T12:07:29.104Z,101012.38
2022-11-18T12:10:20.081Z,101015.91
2022-11-18T12:13:15.728Z,101028.59
2022-11-18T12:16:07.462Z,101017.03
2022-11-18T12:18:55.529Z,101020.31
2022-11-18T12:21:50.361Z,101031.66
2022-11-18T12:24:20.734Z,101040.47
2022-11-18T12:26:53.151Z,101036.88
2022-11-18T12:29:27.232Z,101040.47
2022-11-18T12:32:04.152Z,101040.47
2022-11-18T12:34:46.487Z,101045.97
2022-11-18T12:37:28.804Z,101047.91
2022-11-18T12:39:59.911Z,101059.25
2022-11-18T12:43:06.193Z,101065.28
2022-11-18T12:45:46.625Z,101058.75
2022-11-18T12:48:37.038Z,101073.34
2022-11-18T12:51:21.095Z,101082.13
2022-11-18T12:53:53.224Z,101081.63
2022-11-18T12:56:30.640Z,101091.53
2022-11-18T12:59:02.764Z,101092.19
2022-11-18T13:01:37.559Z,101103.69
2022-11-18T13:04:24.793Z,101103.09
2022-11-18T13:06:57.308Z,101106.69
2022-11-18T13:09:29.548Z,101103.09
2022-11-18T13:12:07.573Z,101111.38
2022-11-18T13:15:02.207Z,101114.13
2022-11-18T13:17:56.572Z,101119.63
2022-11-18T13:20:35.368Z,101125.16
2022-11-18T13:23:44.458Z,101130.66
2022-11-18T13:26:30.078Z,101140.28
2022-11-18T13:29:24.437Z,101141.72
2022-11-18T13:32:07.156Z,101147.75
2022-11-18T13:34:52.162Z,101148.66
2022-11-18T13:37:33.419Z,101153.88
2022-11-18T13:40:03.739Z,101161.03
2022-11-18T13:42:34.859Z,101157.06
2022-11-18T13:45:06.327Z,101174.03
2022-11-18T13:47:54.023Z,101165.41
2022-11-18T13:50:24.865Z,101177.19
2022-11-18T13:53:18.208Z,101181.25
2022-11-18T13:56:00.049Z,101184.09
2022-11-18T13:59:02.735Z,101177.75
2022-11-18T14:01:37.539Z,101184.81
2022-11-18T14:04:10.497Z,101187.63
2022-11-18T14:06:44.199Z,101180.97
2022-11-18T14:09:14.432Z,101186.16
2022-11-18T14:11:47.305Z,101182.06
2022-11-18T14:14:32.395Z,101181.75
2022-11-18T14:17:23.025Z,101188.69
2022-11-18T14:19:55.995Z,101187.56
2022-11-18T14:22:30.246Z,101189.22
2022-11-18T14:25:22.512Z,101189.63
2022-11-18T14:27:58.994Z,101190.75
2022-11-18T14:31:10.561Z,101187.69
2022-11-18T14:33:41.425Z,101181.59
2022-11-18T14:36:14.454Z,101184.84
2022-11-18T14:41:50.187Z,101191.50
2022-11-18T14:44:22.668Z,101186.34
2022-11-18T14:46:58.021Z,101186.16
2022-11-18T14:49:30.378Z,101189.91
2022-11-18T14:52:01.652Z,101198.22
2022-11-18T14:54:32.484Z,101198.31
2022-11-18T14:57:07.981Z,101200.47
2022-11-18T14:59:38.363Z,101205.91
2022-11-18T15:02:15.760Z,101199.25
2022-11-18T15:04:46.156Z,101203.94
2022-11-18T15:07:23.139Z,101209.19
2022-11-18T15:09:54.350Z,101210.81
2022-11-18T15:12:24.752Z,101207.41
2022-11-18T15:14:54.793Z,101203.13
2022-11-18T15:17:25.206Z,101192.41
2022-11-18T15:19:55.396Z,101193.19
2022-11-18T15:22:25.737Z,101194.22
2022-11-18T15:24:55.794Z,101195.88
2022-11-18T15:27:26.101Z,101191.19
2022-11-18T15:30:01.458Z,101200.78
2022-11-18T15:33:20.744Z,101189.13
2022-11-18T15:35:52.008Z,101186.66
2022-11-18T15:38:21.864Z,101190.53
2022-11-18T15:40:52.009Z,101194.41
2022-11-18T15:43:22.356Z,101193.63
2022-11-18T15:46:00.414Z,101197.19
2022-11-18T15:48:30.700Z,101195.88
2022-11-18T15:51:00.761Z,101189.22
2022-11-18T15:53:31.065Z,101196.19
2022-11-18T15:56:26.147Z,101192.16
2022-11-18T15:58:59.391Z,101189.72
2022-11-18T16:01:33.158Z,101199.13
2022-11-18T16:04:03.917Z,101195.56
2022-11-18T16:06:34.831Z,101193.94
2022-11-18T16:09:06.658Z,101193.44
2022-11-18T16:11:55.197Z,101195.00
2022-11-18T16:14:26.088Z,101192.34
2022-11-18T16:16:58.665Z,101196.53
2022-11-18T16:19:30.923Z,101199.94
2022-11-18T16:22:01.293Z,101196.25
2022-11-18T16:24:32.365Z,101193.78
2022-11-18T16:27:04.679Z,101196.03
2022-11-18T16:29:35.296Z,101188.50
2022-11-18T16:32:15.316Z,101196.69
2022-11-18T16:34:45.610Z,101191.78
2022-11-18T16:37:15.972Z,101197.91
2022-11-18T16:39:46.691Z,101193.31
2022-11-18T16:42:17.354Z,101193.63
2022-11-18T16:44:47.678Z,101194.56
2022-11-18T16:47:18.041Z,101195.38
2022-11-18T16:49:48.470Z,101189.34
2022-11-18T16:52:19.193Z,101185.47
2022-11-18T16:54:49.484Z,101186.59
2022-11-18T16:57:19.684Z,101192.13
2022-11-18T16:59:49.936Z,101189.97
2022-11-18T17:02:22.575Z,101190.75
2022-11-18T17:04:52.945Z,101189.97
2022-11-18T17:07:24.121Z,101197.91
2022-11-18T17:09:54.438Z,101196.28
2022-11-18T17:12:24.692Z,101200.69
2022-11-18T17:14:54.938Z,101208.94
2022-11-18T17:17:25.212Z,101205.91
2022-11-18T17:19:55.454Z,101207.03
2022-11-18T17:22:25.752Z,101209.78
2022-11-18T17:24:57.100Z,101211.41
2022-11-18T17:27:29.001Z,101211.41
2022-11-18T17:29:59.206Z,101199.88
2022-11-18T17:32:29.502Z,101208.94
2022-11-18T17:34:59.849Z,101205.06
2022-11-18T17:37:32.249Z,101208.16
2022-11-18T17:40:02.556Z,101205.38
2022-11-18T17:42:32.821Z,101204.25
2022-11-18T17:45:02.845Z,101202.13
2022-11-18T17:47:32.946Z,101193.84
2022-11-18T17:50:03.267Z,101196.09
2022-11-18T17:52:34.471Z,101197.72
2022-11-18T17:55:05.498Z,101182.81
2022-11-18T17:57:35.968Z,101180.06
2022-11-18T18:00:06.867Z,101183.63
2022-11-18T18:02:37.296Z,101177.91
2022-11-18T18:05:07.898Z,101170.47
2022-11-18T18:07:38.381Z,101164.94
2022-11-18T18:10:09.048Z,101163.31
2022-11-18T18:12:57.987Z,101159.72
2022-11-18T18:15:29.369Z,101151.44
2022-11-18T18:17:59.694Z,101151.16
2022-11-18T18:20:30.173Z,101140.13
2022-11-18T18:23:00.853Z,101136.00
2022-11-18T18:25:31.090Z,101131.31
2022-11-18T18:28:01.517Z,101131.63
2022-11-18T18:30:31.796Z,101127.72
2022-11-18T18:33:02.052Z,101119.47
2022-11-18T18:35:32.335Z,101111.19
2022-11-18T18:38:04.118Z,101115.91
2022-11-18T18:40:35.138Z,101111.50
2022-11-18T18:43:05.502Z,101111.50
2022-11-18T18:45:54.095Z,101106.78
2022-11-18T18:48:24.550Z,101115.06
2022-11-18T18:50:55.068Z,101111.50
2022-11-18T18:53:25.494Z,101111.50
2022-11-18T18:55:59.154Z,101113.47
2022-11-18T18:58:30.215Z,101107.13
2022-11-18T19:01:11.266Z,101101.28
2022-11-18T19:03:42.177Z,101098.03
2022-11-18T19:09:11.731Z,101094.16
2022-11-18T19:12:00.412Z,101091.41
2022-11-18T19:14:31.122Z,101089.75
2022-11-18T19:17:04.997Z,101085.63
2022-11-18T19:19:57.819Z,101076.22
2022-11-18T19:22:30.646Z,101074.59
2022-11-18T19:25:01.881Z,101073.59
2022-11-18T19:27:33.562Z,101061.13
2022-11-18T19:30:03.849Z,101061.63
2022-11-18T19:32:37.446Z,101060.00
2022-11-18T19:35:09.499Z,101062.75
2022-11-18T19:37:40.148Z,101060.28
2022-11-18T19:40:11.958Z,101059.50
2022-11-18T19:42:44.231Z,101066.31
2022-11-18T19:45:14.759Z,101064.69
2022-11-18T19:47:45.090Z,101061.94
2022-11-18T19:50:15.627Z,101061.94
2022-11-18T19:52:45.896Z,101052.84
2022-11-18T19:55:16.203Z,101041.00
2022-11-18T19:57:46.858Z,101040.69
2022-11-18T20:00:18.052Z,101046.81
2022-11-18T20:02:48.355Z,101052.66
2022-11-18T20:05:37.385Z,101041.63
2022-11-18T20:08:07.770Z,101033.84
2022-11-18T20:10:38.063Z,101033.03
2022-11-18T20:13:08.378Z,101038.56
2022-11-18T20:15:38.762Z,101033.03
2022-11-18T20:18:09.345Z,101026.72
2022-11-18T20:20:40.913Z,101025.09
2022-11-18T20:23:11.496Z,101026.72
2022-11-18T20:25:41.969Z,101019.25
2022-11-18T20:28:13.349Z,101025.56
2022-11-18T20:30:43.372Z,101014.84
2022-11-18T20:33:13.530Z,101025.09
2022-11-18T20:35:44.169Z,101021.19
2022-11-18T20:38:14.455Z,101024.25
2022-11-18T20:40:44.997Z,101017.09
2022-11-18T20:43:15.356Z,101019.88
2022-11-18T20:45:48.622Z,101021.00
2022-11-18T20:48:18.843Z,101014.34
2022-11-18T20:50:49.180Z,101006.41
2022-11-18T20:53:21.294Z,101009.97
2022-11-18T20:55:55.160Z,101014.34
2022-11-18T20:58:26.515Z,101014.84
2022-11-18T21:01:01.488Z,101009.97
2022-11-18T21:03:32.084Z,101011.59
2022-11-18T21:06:13.842Z,101009.97
2022-11-18T21:08:45.164Z,101013.84
2022-11-18T21:11:16.478Z,101008.31
2022-11-18T21:14:05.287Z,101009.97
2022-11-18T21:16:35.659Z,101015.78
2022-11-18T21:19:06.978Z,101014.66
2022-11-18T21:21:46.694Z,101020.47
2022-11-18T21:24:30.115Z,101017.72
2022-11-18T21:27:05.486Z,101024.34
2022-11-18T21:29:36.435Z,101016.09
2022-11-18T21:32:07.077Z,101014.47
2022-11-18T21:34:37.400Z,101013.66
2022-11-18T21:37:07.617Z,101008.13
2022-11-18T21:39:38.144Z,101007.81
2022-11-18T21:42:08.570Z,100995.66
2022-11-18T21:44:38.979Z,100999.53
2022-11-18T21:47:09.780Z,101001.00
2022-11-18T21:49:39.999Z,100995.66
2022-11-18T21:52:10.693Z,100994.84
2022-11-18T21:54:40.990Z,101003.94
2022-11-18T21:57:11.421Z,100997.63
2022-11-18T21:59:41.638Z,101006.22
2022-11-18T22:02:16.246Z,101002.28
2022-11-18T22:04:55.893Z,101002.28
2022-11-18T22:07:27.278Z,101008.97
2022-11-18T22:09:57.543Z,101015.28
2022-11-18T22:12:28.295Z,101011.72
2022-11-18T22:14:58.877Z,101013.97
2022-11-18T22:17:29.537Z,101027.75
2022-11-18T22:19:59.855Z,101026.94
2022-11-18T22:22:30.211Z,101025.28
2022-11-18T22:25:00.535Z,101026.13
2022-11-18T22:27:30.663Z,101029.69
2022-11-18T22:30:00.913Z,101031.63
2022-11-18T22:32:31.828Z,101028.56
2022-11-18T22:35:02.232Z,101033.28
2022-11-18T22:37:32.610Z,101034.06
2022-11-18T22:40:02.692Z,101040.41
2022-11-18T22:42:52.025Z,101036.84
2022-11-18T22:45:22.515Z,101042.66
2022-11-18T22:47:56.264Z,101048.19
2022-11-18T22:50:26.564Z,101057.56
2022-11-18T22:52:56.923Z,101052.06
2022-11-18T22:55:27.200Z,101054.81
2022-11-18T22:57:57.539Z,101052.06
2022-11-18T23:00:27.772Z,101056.75
2022-11-18T23:02:58.090Z,101069.41
2022-11-18T23:05:28.440Z,101067.78
2022-11-18T23:07:58.733Z,101072.50
2022-11-18T23:10:28.868Z,101067.78
2022-11-18T23:13:17.669Z,101070.84
2022-11-18T23:15:48.529Z,101072.16
2022-11-18T23:18:18.974Z,101074.94
2022-11-18T23:20:49.234Z,101075.25
2022-11-18T23:23:20.709Z,101087.41
2022-11-18T23:25:51.027Z,101093.72
2022-11-18T23:28:21.162Z,101095.66
2022-11-18T23:30:51.501Z,101112.72
2022-11-18T23:33:21.808Z,101104.75
2022-11-18T23:35:55.744Z,101108.34
2022-11-18T23:38:26.353Z,101105.06
2022-11-18T23:41:01.268Z,101110.91
2022-11-18T23:43:32.820Z,101113.94
2022-11-18T23:46:03.854Z,101119.16
2022-11-18T23:48:42.804Z,101124.69
2022-11-18T23:51:15.653Z,101121.94
2022-11-18T23:53:47.394Z,101124.69
2022-11-18T23:56:20.205Z,101119.97
2022-11-18T23:58:53.654Z,101128.25
